Time;durP1;ratioP1;P1;durP2;ratioP2;P2;SDS_P1;SDS_P2;PMS_P1;PMS_P2;Temp;Humidity;BMP_temperature;BMP_pressure;BME280_temperature;BME280_humidity;BME280_pressure;Samples;Min_cycle;Max_cycle;Signal;HPM_P1;HPM_P2
2022/03/11 00:01:23;;;;;;;12.95;5.78;;;7.90;99.90;;;;;;6192688;23;20024;-91
2022/03/11 00:07:40;;;;;;;12.18;6.18;;;8.00;99.90;;;;;;6217712;23;20032;-91
2022/03/11 00:10:08;;;;;;;10.52;5.90;;;8.00;99.90;;;;;;6218125;23;20051;-90
2022/03/11 00:12:37;;;;;;;11.88;5.55;;;7.90;99.90;;;;;;6192490;23;20048;-90
2022/03/11 00:15:08;;;;;;;13.73;7.00;;;8.00;99.90;;;;;;6217876;23;20102;-90
2022/03/11 00:17:35;;;;;;;10.35;6.35;;;7.80;99.90;;;;;;6193247;23;20016;-90
2022/03/11 00:20:03;;;;;;;9.85;5.45;;;7.70;99.90;;;;;;6217770;23;20510;-90
2022/03/11 00:22:30;;;;;;;10.95;6.30;;;7.60;99.90;;;;;;6217120;23;20135;-90
2022/03/11 00:24:57;;;;;;;14.65;6.85;;;7.60;99.90;;;;;;6217556;23;20527;-90
2022/03/11 00:27:24;;;;;;;14.38;6.40;;;7.60;99.90;;;;;;6217405;23;20026;-91
2022/03/11 00:29:52;;;;;;;10.68;6.40;;;7.50;99.90;;;;;;6217512;23;20344;-90
2022/03/11 00:32:19;;;;;;;11.88;5.93;;;7.50;99.90;;;;;;6191649;23;20126;-90
2022/03/11 00:34:46;;;;;;;10.68;6.13;;;7.60;99.90;;;;;;6217897;23;20020;-91
2022/03/11 00:37:12;;;;;;;10.20;5.45;;;7.60;99.90;;;;;;6192081;23;20031;-90
2022/03/11 00:39:39;;;;;;;11.00;5.53;;;7.80;99.90;;;;;;6217727;23;20024;-91
2022/03/11 00:42:06;;;;;;;12.32;6.68;;;7.60;99.90;;;;;;6243603;23;20031;-90
2022/03/11 00:44:35;;;;;;;13.02;6.63;;;7.70;99.90;;;;;;6223024;23;20047;-90
2022/03/11 00:47:02;;;;;;;12.75;6.40;;;7.60;99.90;;;;;;6199999;23;20024;-90
2022/03/11 00:49:29;;;;;;;10.05;4.85;;;7.50;99.90;;;;;;6217383;23;20745;-90
2022/03/11 00:51:56;;;;;;;10.32;5.55;;;7.70;99.90;;;;;;6216627;23;20048;-90
2022/03/11 00:54:24;;;;;;;14.93;6.65;;;7.70;99.90;;;;;;6191931;23;20088;-90
2022/03/11 00:56:51;;;;;;;10.63;4.90;;;7.60;99.90;;;;;;6192350;23;20052;-90
2022/03/11 00:59:18;;;;;;;13.90;6.78;;;7.60;99.90;;;;;;6192037;23;20043;-90
2022/03/11 01:01:45;;;;;;;10.45;6.80;;;7.40;99.90;;;;;;6217311;23;20123;-91
2022/03/11 01:04:12;;;;;;;10.35;4.90;;;7.30;99.90;;;;;;6191646;23;20016;-90
2022/03/11 01:06:40;;;;;;;17.85;7.57;;;7.50;99.90;;;;;;6217113;23;20044;-91
2022/03/11 01:09:07;;;;;;;9.73;5.53;;;7.30;99.90;;;;;;6217275;23;20024;-90
2022/03/11 01:11:34;;;;;;;15.40;7.25;;;7.20;99.90;;;;;;6216850;23;20013;-90
2022/03/11 01:14:02;;;;;;;11.00;5.97;;;7.30;99.90;;;;;;6216433;23;20050;-90
2022/03/11 01:16:29;;;;;;;14.93;7.50;;;7.50;99.90;;;;;;6192086;23;20024;-90
2022/03/11 01:18:56;;;;;;;13.70;6.63;;;7.20;99.90;;;;;;6217140;23;20083;-91
2022/03/11 01:21:23;;;;;;;18.95;7.40;;;7.20;99.90;;;;;;6191627;23;20082;-90
2022/03/11 01:23:50;;;;;;;14.50;7.05;;;7.20;99.90;;;;;;6191592;23;20453;-90
2022/03/11 01:26:17;;;;;;;12.32;7.22;;;7.20;99.90;;;;;;6191643;23;20043;-90
2022/03/11 01:28:44;;;;;;;17.92;7.40;;;7.20;99.90;;;;;;6191753;23;20016;-90
2022/03/11 01:31:13;;;;;;;11.55;6.25;;;7.00;99.90;;;;;;6217118;23;20051;-90
2022/03/11 01:33:44;;;;;;;13.60;7.40;;;7.20;99.90;;;;;;6216898;23;20523;-90
2022/03/11 01:36:12;;;;;;;12.77;6.88;;;7.20;99.90;;;;;;6191982;23;20086;-90
2022/03/11 01:38:40;;;;;;;12.57;6.45;;;7.30;99.90;;;;;;6191798;23;20346;-90
2022/03/11 01:41:09;;;;;;;14.43;6.82;;;7.30;99.90;;;;;;6217550;23;20451;-89
2022/03/11 01:43:59;;;;;;;10.20;5.93;;;7.20;99.90;;;;;;6191957;23;20024;-89
2022/03/11 01:46:28;;;;;;;12.90;6.95;;;7.20;99.90;;;;;;6191854;23;20052;-91
2022/03/11 01:48:56;;;;;;;15.30;8.00;;;7.30;99.90;;;;;;6191927;23;20020;-89
2022/03/11 01:51:24;;;;;;;15.38;7.30;;;7.20;99.90;;;;;;6191697;23;20078;-88
2022/03/11 01:53:53;;;;;;;13.48;7.25;;;7.10;99.90;;;;;;6191342;23;20111;-88
2022/03/11 01:56:21;;;;;;;16.83;7.07;;;7.10;99.90;;;;;;6216528;23;20066;-89
2022/03/11 01:58:53;;;;;;;13.82;7.65;;;7.10;99.90;;;;;;6216804;23;20028;-89
2022/03/11 02:01:21;;;;;;;13.77;7.65;;;7.00;99.90;;;;;;6191598;23;20415;-90
2022/03/11 02:03:49;;;;;;;12.32;6.13;;;6.80;99.90;;;;;;6191737;23;20028;-90
2022/03/11 02:06:19;;;;;;;13.52;6.30;;;6.80;99.90;;;;;;6218461;23;20070;-89
2022/03/11 02:08:46;;;;;;;10.77;5.95;;;6.90;99.90;;;;;;6193383;23;20027;-88
2022/03/11 02:11:13;;;;;;;14.80;7.47;;;7.00;99.90;;;;;;6217719;23;20339;-89
2022/03/11 02:13:49;;;;;;;14.40;7.22;;;6.80;99.90;;;;;;6218372;23;20024;-89
2022/03/11 02:16:37;;;;;;;13.10;6.22;;;6.80;99.90;;;;;;6193671;23;20024;-90
2022/03/11 02:19:05;;;;;;;13.40;7.07;;;6.80;99.90;;;;;;6194022;23;20460;-90
2022/03/11 02:21:45;;;;;;;13.75;7.22;;;6.90;99.90;;;;;;6193740;23;20020;-89
2022/03/11 02:24:16;;;;;;;11.02;5.72;;;6.90;99.90;;;;;;6193651;23;20020;-89
2022/03/11 02:26:43;;;;;;;15.95;7.90;;;6.90;99.90;;;;;;6218166;23;20106;-89
2022/03/11 02:29:10;;;;;;;11.52;6.38;;;6.70;99.90;;;;;;6193332;23;20016;-90
2022/03/11 02:31:37;;;;;;;11.95;6.30;;;6.90;99.90;;;;;;6218541;23;20094;-90
2022/03/11 02:34:04;;;;;;;14.48;7.95;;;6.80;99.90;;;;;;6193488;23;20020;-90
2022/03/11 02:36:31;;;;;;;15.98;6.15;;;6.70;99.90;;;;;;6218745;23;20099;-90
2022/03/11 02:38:58;;;;;;;12.82;7.15;;;6.80;99.90;;;;;;6218766;23;20043;-90
2022/03/11 02:41:26;;;;;;;11.98;6.68;;;6.70;99.90;;;;;;6219404;23;20030;-90
2022/03/11 02:43:53;;;;;;;14.75;7.55;;;6.70;99.90;;;;;;6196409;23;20020;-90
2022/03/11 02:46:20;;;;;;;9.40;5.72;;;6.90;99.90;;;;;;6218955;23;20058;-90
2022/03/11 02:48:47;;;;;;;15.13;7.97;;;6.80;99.90;;;;;;6220939;23;20024;-89
2022/03/11 02:51:14;;;;;;;13.68;7.53;;;6.70;99.90;;;;;;6197373;23;20024;-90
2022/03/11 02:53:42;;;;;;;14.32;7.35;;;6.50;99.90;;;;;;6218867;23;20527;-91
2022/03/11 02:56:11;;;;;;;8.02;5.10;;;6.50;99.90;;;;;;6218233;23;20035;-90
2022/03/11 02:58:39;;;;;;;15.23;8.75;;;6.60;99.90;;;;;;6218326;23;20027;-91
2022/03/11 03:01:07;;;;;;;12.20;7.35;;;6.70;99.90;;;;;;6193446;23;20024;-90
2022/03/11 03:03:35;;;;;;;15.10;7.57;;;6.50;99.90;;;;;;6217854;23;20031;-90
2022/03/11 03:06:03;;;;;;;14.20;7.68;;;6.40;99.90;;;;;;6192747;23;20023;-90
2022/03/11 03:08:30;;;;;;;13.85;7.60;;;6.50;99.90;;;;;;6217851;23;20016;-91
2022/03/11 03:10:57;;;;;;;11.77;6.90;;;6.50;99.90;;;;;;6217557;23;20026;-90
2022/03/11 03:13:24;;;;;;;13.95;6.40;;;6.50;99.90;;;;;;6217819;23;20460;-90
2022/03/11 03:15:51;;;;;;;11.00;5.72;;;6.60;99.90;;;;;;6217465;23;20048;-90
2022/03/11 03:18:18;;;;;;;13.07;7.18;;;6.70;99.90;;;;;;6217850;23;20051;-90
2022/03/11 03:20:45;;;;;;;13.65;6.95;;;6.60;99.90;;;;;;6192788;23;20515;-89
2022/03/11 03:23:12;;;;;;;13.48;7.22;;;6.40;99.90;;;;;;6192345;23;20020;-89
2022/03/11 03:25:39;;;;;;;12.73;6.15;;;6.40;99.90;;;;;;6192838;23;20016;-89
2022/03/11 03:28:06;;;;;;;15.65;7.75;;;6.50;99.90;;;;;;6217272;23;20016;-90
2022/03/11 03:30:34;;;;;;;13.57;7.22;;;6.50;99.90;;;;;;6192299;23;20079;-90
2022/03/11 03:33:01;;;;;;;13.75;6.05;;;6.50;99.90;;;;;;6192411;23;20024;-89
2022/03/11 03:35:28;;;;;;;11.73;6.65;;;6.40;99.90;;;;;;6217269;23;20111;-90
2022/03/11 03:37:55;;;;;;;18.17;9.23;;;6.50;99.90;;;;;;6217503;23;20024;-90
2022/03/11 03:40:22;;;;;;;12.65;7.03;;;6.40;99.90;;;;;;6217113;23;20081;-89
2022/03/11 03:42:49;;;;;;;14.27;7.10;;;6.20;99.90;;;;;;6216745;23;20435;-90
2022/03/11 03:45:17;;;;;;;12.68;7.03;;;6.40;99.90;;;;;;6192595;23;20020;-89
2022/03/11 03:47:44;;;;;;;12.43;7.40;;;6.40;99.90;;;;;;6192661;23;20081;-89
2022/03/11 03:50:11;;;;;;;9.05;5.28;;;6.30;99.90;;;;;;6191962;23;20103;-90
2022/03/11 03:52:38;;;;;;;18.83;8.77;;;6.40;99.90;;;;;;6216263;23;20024;-89
2022/03/11 03:55:06;;;;;;;13.75;7.28;;;6.20;99.90;;;;;;6217112;23;20016;-89
2022/03/11 03:57:34;;;;;;;15.35;7.38;;;6.30;99.90;;;;;;6221208;23;20016;-89
2022/03/11 04:00:01;;;;;;;9.57;5.53;;;6.30;99.90;;;;;;6194802;23;20043;-89
2022/03/11 04:02:45;;;;;;;17.30;9.10;;;6.20;99.90;;;;;;6243539;23;20407;-89
2022/03/11 04:05:13;;;;;;;13.40;6.60;;;6.00;99.90;;;;;;6192644;23;20043;-89
2022/03/11 04:07:42;;;;;;;16.23;8.70;;;6.30;99.90;;;;;;6217116;23;20016;-90
2022/03/11 04:10:10;;;;;;;14.27;7.18;;;6.00;99.90;;;;;;6192628;23;20344;-89
2022/03/11 04:12:37;;;;;;;15.23;7.85;;;6.10;99.90;;;;;;6216664;23;20039;-89
2022/03/11 04:15:06;;;;;;;10.63;6.40;;;6.20;99.90;;;;;;6192502;23;20066;-89
2022/03/11 04:17:32;;;;;;;11.25;6.15;;;6.30;99.90;;;;;;6217560;23;20012;-89
2022/03/11 04:19:59;;;;;;;16.42;7.93;;;6.40;99.90;;;;;;6192091;23;20138;-90
2022/03/11 04:22:26;;;;;;;15.07;8.18;;;6.10;99.90;;;;;;6191589;23;20016;-89
2022/03/11 04:24:53;;;;;;;19.00;8.95;;;6.00;99.90;;;;;;6243326;23;20016;-89
2022/03/11 04:27:21;;;;;;;17.13;8.43;;;6.00;99.90;;;;;;6216820;23;20115;-90
2022/03/11 04:29:48;;;;;;;13.40;7.22;;;6.10;99.90;;;;;;6217007;23;20103;-90
2022/03/11 04:32:18;;;;;;;12.95;7.65;;;6.00;99.90;;;;;;6193918;23;20031;-89
2022/03/11 04:34:47;;;;;;;14.07;6.95;;;6.10;99.90;;;;;;6194091;23;20020;-90
2022/03/11 04:37:14;;;;;;;12.13;7.32;;;6.10;99.90;;;;;;6218243;23;20027;-91
2022/03/11 04:39:41;;;;;;;19.10;9.70;;;5.90;99.90;;;;;;6192303;23;20107;-90
2022/03/11 04:42:09;;;;;;;13.50;7.18;;;5.90;99.90;;;;;;6217126;23;20052;-89
2022/03/11 04:44:36;;;;;;;11.73;6.50;;;6.10;99.90;;;;;;6217595;23;20016;-89
2022/03/11 04:47:04;;;;;;;14.18;7.53;;;6.00;99.90;;;;;;6216801;23;20023;-90
2022/03/11 04:49:31;;;;;;;12.65;7.38;;;6.20;99.90;;;;;;6217167;23;20012;-89
2022/03/11 04:51:59;;;;;;;15.82;8.02;;;6.10;99.90;;;;;;6217202;23;20016;-90
2022/03/11 04:54:26;;;;;;;14.55;7.55;;;6.00;99.90;;;;;;6216723;23;20022;-90
2022/03/11 04:56:53;;;;;;;14.23;7.45;;;5.90;99.90;;;;;;6216662;23;20321;-90
2022/03/11 04:59:19;;;;;;;14.80;7.60;;;5.90;99.90;;;;;;6217106;23;20046;-89
2022/03/11 05:01:47;;;;;;;13.85;7.20;;;5.90;99.90;;;;;;6216660;23;20107;-89
2022/03/11 05:04:14;;;;;;;12.35;6.90;;;5.90;99.90;;;;;;6191873;23;20031;-89
2022/03/11 05:06:41;;;;;;;14.18;7.82;;;5.90;99.90;;;;;;6192542;23;20103;-89
2022/03/11 05:09:07;;;;;;;12.18;7.50;;;5.90;99.90;;;;;;6190740;23;20050;-89
2022/03/11 05:11:34;;;;;;;19.42;8.70;;;5.80;99.90;;;;;;6216677;23;20348;-89
2022/03/11 05:14:04;;;;;;;12.32;6.65;;;5.70;99.90;;;;;;6216651;23;20020;-90
2022/03/11 05:16:34;;;;;;;13.07;7.57;;;5.80;99.90;;;;;;6192359;23;20087;-90
2022/03/11 05:19:04;;;;;;;13.95;6.53;;;5.80;99.90;;;;;;6218662;23;20028;-91
2022/03/11 05:21:48;;;;;;;10.95;6.18;;;5.90;99.90;;;;;;6173691;23;20470;-90
2022/03/11 05:24:15;;;;;;;14.07;7.70;;;5.90;99.90;;;;;;6217910;23;20016;-90
2022/03/11 05:26:42;;;;;;;13.55;6.82;;;5.90;99.90;;;;;;6192097;23;20095;-90
2022/03/11 05:29:11;;;;;;;13.15;7.28;;;5.90;99.90;;;;;;6217425;23;20028;-90
2022/03/11 05:31:42;;;;;;;16.23;6.40;;;5.80;99.90;;;;;;6244138;23;20095;-90
2022/03/11 05:34:09;;;;;;;12.80;6.60;;;5.60;99.90;;;;;;6217121;23;20311;-89
2022/03/11 05:36:35;;;;;;;13.68;6.97;;;5.70;99.90;;;;;;6217057;23;20028;-89
2022/03/11 05:39:02;;;;;;;16.88;8.63;;;5.80;99.90;;;;;;6192488;23;20427;-89
2022/03/11 05:41:29;;;;;;;14.85;7.47;;;5.80;99.90;;;;;;6193960;23;20048;-90
2022/03/11 05:43:56;;;;;;;11.63;6.38;;;5.70;99.90;;;;;;6194460;23;20035;-89
2022/03/11 05:46:23;;;;;;;15.55;7.30;;;5.70;99.90;;;;;;6194050;23;20071;-89
2022/03/11 05:48:50;;;;;;;13.98;8.65;;;5.70;99.90;;;;;;6219302;23;20363;-91
2022/03/11 05:51:17;;;;;;;14.73;7.15;;;5.60;99.90;;;;;;6194574;23;20083;-89
2022/03/11 05:53:47;;;;;;;11.27;6.05;;;5.70;99.90;;;;;;6193719;23;20082;-90
2022/03/11 05:56:17;;;;;;;11.80;6.47;;;5.80;99.90;;;;;;6196104;23;20043;-90
2022/03/11 05:58:44;;;;;;;11.48;7.28;;;5.80;99.90;;;;;;6195532;23;20103;-90
2022/03/11 06:01:12;;;;;;;14.57;7.93;;;5.70;99.90;;;;;;6194194;23;20031;-90
2022/03/11 06:03:40;;;;;;;16.45;6.47;;;5.60;99.90;;;;;;6194247;23;20345;-90
2022/03/11 06:06:09;;;;;;;11.80;7.55;;;5.60;99.90;;;;;;6191418;23;20462;-91
2022/03/11 06:08:36;;;;;;;11.98;6.78;;;5.70;99.90;;;;;;6218934;23;20741;-90
2022/03/11 06:11:03;;;;;;;17.00;7.75;;;5.70;99.90;;;;;;6194273;23;20067;-90
2022/03/11 06:13:32;;;;;;;13.48;7.50;;;5.50;99.90;;;;;;6195032;23;20070;-91
2022/03/11 06:15:59;;;;;;;17.38;7.50;;;5.60;99.90;;;;;;6219224;23;20098;-90
2022/03/11 06:18:27;;;;;;;12.63;6.85;;;5.60;99.90;;;;;;6219156;23;20047;-90
2022/03/11 06:20:55;;;;;;;14.07;7.18;;;5.60;99.90;;;;;;6194262;23;20020;-89
2022/03/11 06:23:23;;;;;;;12.50;6.30;;;5.70;99.90;;;;;;6193890;23;20032;-91
2022/03/11 06:25:51;;;;;;;12.45;7.55;;;5.60;99.90;;;;;;6220519;23;20061;-90
2022/03/11 06:28:20;;;;;;;11.13;6.00;;;5.50;99.90;;;;;;6219164;23;20392;-90
2022/03/11 06:30:49;;;;;;;13.15;6.28;;;5.60;99.90;;;;;;6219586;23;20019;-91
2022/03/11 06:33:17;;;;;;;14.43;7.18;;;5.50;99.90;;;;;;6219130;23;20440;-91
2022/03/11 06:35:44;;;;;;;15.18;7.40;;;5.40;99.90;;;;;;6219375;23;20039;-91
2022/03/11 06:38:11;;;;;;;16.15;6.53;;;5.40;99.90;;;;;;6194022;23;20020;-90
2022/03/11 06:40:38;;;;;;;12.07;6.35;;;5.30;99.90;;;;;;6219207;23;20087;-90
2022/03/11 06:43:05;;;;;;;11.27;6.90;;;5.40;99.90;;;;;;6193481;23;20019;-89
2022/03/11 06:45:32;;;;;;;15.77;6.85;;;5.40;99.90;;;;;;6194060;23;20078;-91
2022/03/11 06:48:03;;;;;;;16.98;8.25;;;5.50;99.90;;;;;;6220453;23;20012;-90
2022/03/11 06:50:30;;;;;;;16.02;7.68;;;5.50;99.90;;;;;;6169811;23;20351;-89
2022/03/11 06:52:57;;;;;;;11.82;6.80;;;5.50;99.90;;;;;;6217478;23;20514;-89
2022/03/11 06:55:25;;;;;;;13.38;7.47;;;5.50;99.90;;;;;;6217897;23;20016;-89
2022/03/11 06:57:53;;;;;;;12.98;6.55;;;5.40;99.90;;;;;;6193536;23;20024;-89
2022/03/11 07:00:20;;;;;;;10.85;6.50;;;5.50;99.90;;;;;;6193355;23;20526;-90
2022/03/11 07:02:47;;;;;;;11.73;6.53;;;5.50;99.90;;;;;;6193559;23;20033;-89
2022/03/11 07:05:14;;;;;;;19.80;8.32;;;5.50;99.90;;;;;;6217957;23;20028;-90
2022/03/11 07:07:41;;;;;;;12.52;7.03;;;5.50;99.90;;;;;;6217757;23;20355;-89
2022/03/11 07:10:16;;;;;;;10.82;6.45;;;5.40;99.90;;;;;;6195276;23;20439;-92
2022/03/11 07:12:43;;;;;;;12.63;6.70;;;5.50;99.90;;;;;;6218657;23;20082;-90
2022/03/11 07:15:13;;;;;;;17.90;7.93;;;5.50;99.90;;;;;;6218066;23;20039;-92
2022/03/11 07:17:40;;;;;;;14.77;8.40;;;5.50;99.90;;;;;;6219835;23;20024;-93
2022/03/11 07:20:08;;;;;;;14.93;6.85;;;5.50;99.90;;;;;;6224472;23;20012;-92
2022/03/11 07:22:35;;;;;;;13.05;7.78;;;5.60;99.90;;;;;;6223225;23;20027;-91
2022/03/11 07:25:05;;;;;;;11.90;6.78;;;5.70;99.90;;;;;;6198875;23;20433;-91
2022/03/11 07:27:32;;;;;;;14.85;7.88;;;5.60;99.90;;;;;;6219280;23;20031;-91
2022/03/11 07:29:59;;;;;;;15.10;7.78;;;5.60;99.90;;;;;;6194698;23;20391;-92
2022/03/11 07:32:26;;;;;;;13.82;7.85;;;5.70;99.90;;;;;;6193494;23;20020;-92
2022/03/11 07:34:53;;;;;;;16.10;7.93;;;5.60;99.90;;;;;;6218335;23;20027;-91
2022/03/11 07:37:21;;;;;;;12.80;7.57;;;5.60;99.90;;;;;;6218994;23;20075;-91
2022/03/11 07:39:49;;;;;;;11.60;6.20;;;5.70;99.90;;;;;;6218202;23;20852;-91
2022/03/11 07:42:16;;;;;;;16.65;7.95;;;5.70;99.90;;;;;;6218649;23;20016;-91
2022/03/11 07:44:44;;;;;;;15.27;7.28;;;5.70;99.90;;;;;;6245385;23;20020;-92
2022/03/11 07:47:12;;;;;;;10.88;6.75;;;5.80;99.90;;;;;;6245056;23;20031;-91
2022/03/11 07:49:39;;;;;;;13.73;6.75;;;5.90;99.90;;;;;;6217698;23;20078;-91
2022/03/11 07:52:07;;;;;;;15.45;7.35;;;5.90;99.90;;;;;;6192245;23;20020;-92
2022/03/11 07:54:34;;;;;;;12.45;6.63;;;6.00;99.90;;;;;;6218648;23;20408;-92
2022/03/11 07:57:00;;;;;;;14.48;7.65;;;6.00;99.90;;;;;;6219525;23;20048;-92
2022/03/11 07:59:31;;;;;;;15.02;7.63;;;6.00;99.90;;;;;;6194127;23;20035;-91
2022/03/11 08:01:59;;;;;;;13.05;7.68;;;6.10;99.90;;;;;;6219141;23;20020;-90
2022/03/11 08:04:29;;;;;;;15.52;7.45;;;6.10;99.90;;;;;;6219181;23;20020;-92
2022/03/11 08:06:59;;;;;;;16.13;7.85;;;6.10;99.90;;;;;;6193727;23;20016;-93
2022/03/11 08:09:28;;;;;;;16.85;7.47;;;6.20;99.90;;;;;;6193894;23;20174;-92
2022/03/11 08:11:55;;;;;;;17.08;8.20;;;6.30;99.90;;;;;;6193710;23;20112;-92
2022/03/11 08:14:23;;;;;;;14.38;7.63;;;6.30;99.90;;;;;;6218926;23;20081;-92
2022/03/11 08:16:50;;;;;;;14.48;7.63;;;6.40;99.90;;;;;;6218585;23;20031;-92
2022/03/11 08:19:17;;;;;;;14.48;8.07;;;6.40;99.90;;;;;;6193831;23;20421;-92
2022/03/11 08:21:50;;;;;;;17.20;8.60;;;6.50;99.90;;;;;;6218682;23;20440;-92
2022/03/11 08:24:18;;;;;;;14.02;8.40;;;6.50;99.90;;;;;;6218822;23;20344;-92
2022/03/11 08:26:47;;;;;;;18.30;8.00;;;6.60;99.90;;;;;;6194284;23;20024;-91
2022/03/11 08:29:16;;;;;;;15.20;7.13;;;6.70;99.90;;;;;;6194249;23;20022;-92
2022/03/11 08:31:46;;;;;;;14.88;8.07;;;6.70;99.90;;;;;;6218509;23;20069;-90
2022/03/11 08:34:14;;;;;;;16.10;8.68;;;6.80;99.90;;;;;;6193528;23;20083;-91
2022/03/11 08:36:42;;;;;;;16.40;7.88;;;6.90;99.90;;;;;;6218701;23;20020;-91
2022/03/11 08:39:09;;;;;;;13.55;8.48;;;6.90;99.90;;;;;;6193293;23;20020;-92
2022/03/11 08:41:36;;;;;;;13.60;7.90;;;6.90;99.90;;;;;;6193897;23;20027;-93
2022/03/11 08:44:05;;;;;;;16.55;8.23;;;7.00;99.90;;;;;;6218514;23;20048;-91
2022/03/11 08:46:32;;;;;;;13.20;7.25;;;7.00;99.90;;;;;;6193294;23;20053;-91
2022/03/11 08:48:59;;;;;;;16.73;8.02;;;7.00;99.90;;;;;;6218224;23;20098;-90
2022/03/11 08:51:27;;;;;;;16.08;8.25;;;7.00;99.90;;;;;;6193627;23;20028;-91
2022/03/11 08:53:54;;;;;;;14.82;7.70;;;7.00;99.90;;;;;;6217687;23;20440;-91
2022/03/11 08:56:22;;;;;;;16.27;7.70;;;7.10;99.90;;;;;;6193657;23;20506;-92
2022/03/11 08:58:51;;;;;;;18.42;8.35;;;7.10;99.90;;;;;;6219166;23;20760;-92
2022/03/11 09:01:18;;;;;;;19.48;7.13;;;7.20;99.90;;;;;;6218060;23;20020;-91
2022/03/11 09:03:45;;;;;;;15.02;8.13;;;7.20;99.90;;;;;;6217326;23;20020;-92
2022/03/11 09:06:13;;;;;;;14.63;8.73;;;7.20;99.90;;;;;;6192271;23;20020;-92
2022/03/11 09:08:40;;;;;;;19.63;8.52;;;7.30;99.90;;;;;;6217448;23;20099;-91
2022/03/11 09:11:07;;;;;;;14.02;7.13;;;7.30;99.90;;;;;;6219320;23;20031;-93
2022/03/11 09:13:38;;;;;;;14.85;8.00;;;7.30;99.90;;;;;;6193797;22;20111;-93
2022/03/11 09:16:09;;;;;;;17.20;7.68;;;7.40;99.90;;;;;;6221263;23;20017;-93
2022/03/11 09:18:41;;;;;;;17.60;9.32;;;7.40;99.90;;;;;;6222362;23;20047;-93
2022/03/11 09:21:13;;;;;;;15.20;7.20;;;7.50;96.40;;;;;;6221770;23;20020;-93
2022/03/11 09:23:43;;;;;;;20.83;9.23;;;7.50;99.90;;;;;;6221468;23;20020;-94
2022/03/11 09:26:10;;;;;;;18.10;8.45;;;7.50;88.60;;;;;;6221735;23;20035;-93
2022/03/11 09:28:40;;;;;;;21.60;8.95;;;7.70;76.70;;;;;;6221497;23;20711;-92
2022/03/11 09:31:10;;;;;;;14.80;8.40;;;7.70;58.50;;;;;;6220911;23;20020;-90
2022/03/11 09:33:38;;;;;;;15.90;7.57;;;7.80;38.20;;;;;;6220552;23;20016;-92
2022/03/11 09:36:08;;;;;;;20.20;9.25;;;7.90;40.00;;;;;;6220751;23;20016;-92
2022/03/11 09:38:38;;;;;;;21.90;9.38;;;7.90;69.60;;;;;;6194693;23;20028;-92
2022/03/11 09:41:08;;;;;;;13.25;7.30;;;7.90;36.80;;;;;;6220377;23;20020;-92
2022/03/11 09:43:37;;;;;;;16.27;8.18;;;7.80;43.60;;;;;;6194909;22;20028;-93
2022/03/11 09:46:04;;;;;;;15.63;8.20;;;7.80;38.00;;;;;;6195596;23;20024;-91
2022/03/11 09:48:34;;;;;;;21.08;8.95;;;7.80;33.60;;;;;;6194941;23;20034;-92
2022/03/11 09:51:01;;;;;;;15.98;8.15;;;8.00;31.50;;;;;;6195093;23;20115;-93
2022/03/11 09:53:35;;;;;;;21.10;9.25;;;8.00;28.70;;;;;;6219702;23;20020;-92
2022/03/11 09:56:02;;;;;;;18.48;8.75;;;8.30;20.20;;;;;;6220596;23;20344;-93
2022/03/11 09:58:30;;;;;;;16.77;9.20;;;8.30;19.40;;;;;;6195424;23;20028;-92
2022/03/11 10:00:57;;;;;;;14.77;9.15;;;8.40;21.00;;;;;;6220849;23;20371;-92
2022/03/11 10:03:29;;;;;;;17.98;9.77;;;8.30;33.70;;;;;;6246657;23;20016;-93
2022/03/11 10:05:56;;;;;;;17.48;8.90;;;8.30;22.70;;;;;;6220705;23;20447;-93
2022/03/11 10:08:33;;;;;;;18.55;8.55;;;8.50;12.00;;;;;;6194512;23;20027;-92
2022/03/11 10:11:21;;;;;;;15.65;9.38;;;8.50;21.50;;;;;;6219695;23;20020;-92
2022/03/11 10:13:53;;;;;;;18.00;8.50;;;8.70;13.20;;;;;;6194998;23;20012;-92
2022/03/11 10:16:23;;;;;;;17.33;8.48;;;8.70;9.70;;;;;;6219941;23;20019;-92
2022/03/11 10:18:58;;;;;;;15.60;7.63;;;8.60;12.60;;;;;;6220312;23;20020;-92
2022/03/11 10:21:35;;;;;;;17.02;8.90;;;8.70;12.50;;;;;;6219523;23;20046;-92
2022/03/11 10:24:06;;;;;;;18.88;9.48;;;8.80;16.30;;;;;;6220411;23;20490;-90
2022/03/11 10:26:42;;;;;;;19.75;9.18;;;8.80;12.20;;;;;;6219284;23;20028;-93
2022/03/11 10:29:18;;;;;;;13.48;8.98;;;9.00;8.80;;;;;;6220181;23;20020;-93
2022/03/11 10:31:50;;;;;;;18.35;9.55;;;9.20;9.40;;;;;;6193974;23;20343;-92
2022/03/11 10:34:49;;;;;;;17.58;8.57;;;9.20;7.70;;;;;;6194367;23;20444;-91
2022/03/11 10:37:16;;;;;;;21.13;9.57;;;9.20;7.50;;;;;;6175453;23;20399;-92
2022/03/11 10:39:47;;;;;;;17.23;9.32;;;9.30;5.60;;;;;;6219395;23;20052;-92
2022/03/11 10:42:20;;;;;;;22.42;10.02;;;9.30;7.20;;;;;;6194595;23;20078;-92
2022/03/11 10:45:00;;;;;;;18.15;9.85;;;9.40;9.40;;;;;;6194357;23;20332;-92
2022/03/11 10:47:40;;;;;;;20.27;9.43;;;9.50;6.00;;;;;;6219006;23;20048;-92
2022/03/11 10:50:12;;;;;;;19.45;9.75;;;9.60;6.00;;;;;;6219792;23;20100;-93
2022/03/11 10:52:44;;;;;;;20.33;9.30;;;9.60;5.60;;;;;;6219087;23;20020;-92
2022/03/11 10:55:27;;;;;;;22.83;10.18;;;9.90;4.30;;;;;;6219227;23;20020;-93
2022/03/11 10:57:58;;;;;;;18.88;9.48;;;10.10;2.50;;;;;;6219323;23;20031;-92
2022/03/11 11:00:33;;;;;;;19.48;9.18;;;10.20;3.10;;;;;;6194265;23;20024;-91
2022/03/11 11:03:05;;;;;;;20.88;9.98;;;10.20;2.50;;;;;;6193097;23;20398;-92
2022/03/11 11:05:34;;;;;;;17.90;9.75;;;10.10;5.00;;;;;;6193499;23;20027;-92
2022/03/11 11:08:03;;;;;;;16.60;9.50;;;10.00;7.20;;;;;;6218198;23;20034;-92
2022/03/11 11:10:33;;;;;;;18.00;9.35;;;10.20;6.60;;;;;;6218403;23;20352;-93
2022/03/11 11:13:00;;;;;;;23.23;10.25;;;10.30;3.30;;;;;;6217483;23;20117;-91
2022/03/11 11:15:27;;;;;;;23.75;9.55;;;10.40;2.30;;;;;;6244728;23;20016;-92
2022/03/11 11:18:00;;;;;;;20.67;9.48;;;10.60;4.70;;;;;;6193492;23;20028;-92
2022/03/11 11:20:41;;;;;;;18.38;9.73;;;10.60;9.20;;;;;;6193770;23;20086;-91
2022/03/11 11:23:09;;;;;;;18.55;9.65;;;10.80;1.70;;;;;;6192796;23;20107;-91
2022/03/11 11:25:38;;;;;;;20.45;10.10;;;10.70;2.70;;;;;;6192905;23;20090;-91
2022/03/11 11:28:11;;;;;;;17.75;10.02;;;10.80;6.80;;;;;;6192796;23;20026;-92
2022/03/11 11:30:39;;;;;;;16.58;9.60;;;11.00;3.90;;;;;;6217993;23;20431;-89
2022/03/11 11:33:07;;;;;;;19.77;9.10;;;11.20;1.00;;;;;;6217463;23;20461;-92
2022/03/11 11:35:37;;;;;;;17.58;9.45;;;11.30;1.50;;;;;;6217848;23;20020;-89
2022/03/11 11:38:09;;;;;;;21.23;10.80;;;11.30;2.00;;;;;;6218100;23;20087;-92
2022/03/11 11:40:39;;;;;;;18.10;10.02;;;11.30;1.00;;;;;;6218436;23;20447;-90
2022/03/11 11:43:26;;;;;;;16.75;10.38;;;11.30;1.00;;;;;;6217824;23;20075;-92
2022/03/11 11:46:02;;;;;;;17.80;10.02;;;11.30;3.30;;;;;;6245112;23;20024;-92
2022/03/11 11:48:33;;;;;;;19.08;9.63;;;11.40;1.70;;;;;;6193478;23;20020;-93
2022/03/11 11:51:05;;;;;;;23.20;10.80;;;11.40;1.00;;;;;;6193196;23;20052;-93
2022/03/11 11:53:42;;;;;;;26.20;10.70;;;11.50;1.00;;;;;;6216963;23;20016;-91
2022/03/11 11:56:32;;;;;;;17.70;10.07;;;11.60;1.00;;;;;;6217693;23;20012;-91
2022/03/11 11:59:18;;;;;;;19.02;11.05;;;11.80;1.00;;;;;;6218137;23;20024;-92
2022/03/11 12:01:47;;;;;;;20.40;10.35;;;11.80;1.00;;;;;;6218090;23;20090;-92
2022/03/11 12:04:36;;;;;;;18.33;10.65;;;11.90;1.00;;;;;;6217914;23;20074;-92
2022/03/11 12:07:10;;;;;;;18.50;10.27;;;12.10;1.00;;;;;;6193149;23;20024;-91
2022/03/11 12:09:45;;;;;;;20.67;11.60;;;12.00;8.00;;;;;;6245137;23;20012;-90
2022/03/11 12:12:18;;;;;;;21.52;11.30;;;11.90;2.70;;;;;;6217336;23;20016;-91
2022/03/11 12:14:57;;;;;;;17.77;10.35;;;11.70;4.30;;;;;;6217166;23;20098;-92
2022/03/11 12:17:40;;;;;;;26.52;11.73;;;11.80;2.60;;;;;;6217484;23;20028;-89
2022/03/11 12:20:27;;;;;;;21.27;12.02;;;11.80;5.30;;;;;;6244494;23;20024;-92
2022/03/11 12:23:08;;;;;;;16.20;10.63;;;11.90;3.10;;;;;;6216012;23;20024;-91
2022/03/11 12:26:00;;;;;;;24.58;12.68;;;11.90;3.20;;;;;;6218659;23;20723;-93
2022/03/11 12:28:33;;;;;;;20.70;10.52;;;11.90;4.20;;;;;;6217442;23;20071;-94
2022/03/11 12:31:11;;;;;;;24.85;11.25;;;11.80;2.80;;;;;;6219443;23;20062;-92
2022/03/11 12:33:48;;;;;;;19.98;11.10;;;11.90;2.20;;;;;;6217377;23;20096;-91
2022/03/11 12:36:24;;;;;;;20.20;11.07;;;12.00;3.40;;;;;;6193526;23;20020;-92
2022/03/11 12:39:09;;;;;;;21.98;10.80;;;12.00;4.40;;;;;;6244808;23;20454;-94
2022/03/11 12:41:56;;;;;;;20.73;11.60;;;12.10;2.80;;;;;;6196344;23;20024;-90
2022/03/11 12:45:02;;;;;;;20.98;11.40;;;12.10;2.20;;;;;;6214932;23;20048;-89
2022/03/11 12:47:42;;;;;;;19.05;11.27;;;12.10;5.20;;;;;;6215592;23;20339;-90
2022/03/11 12:50:28;;;;;;;22.30;12.20;;;12.00;6.30;;;;;;6215224;23;20170;-90
2022/03/11 12:53:10;;;;;;;20.00;10.52;;;12.10;3.50;;;;;;6216548;23;20135;-90
2022/03/11 12:55:53;;;;;;;19.80;11.63;;;12.20;4.80;;;;;;6243085;23;20012;-87
2022/03/11 12:58:39;;;;;;;20.15;11.43;;;12.20;10.30;;;;;;6216916;23;20047;-88
2022/03/11 13:01:19;;;;;;;20.48;12.23;;;12.20;3.20;;;;;;6196099;23;20074;-88
2022/03/11 13:03:58;;;;;;;19.70;11.43;;;12.30;10.50;;;;;;6218086;23;20020;-88